»·PEaware :: JNY60 KJAC-KGEG

JNY60 :: KJAC-KGEG

FLIGHT INFORMATION

Flight Status: Arrived
Operator: Unknown
More flights by this operator :: More flights under this callsign
Pilot: Max W. (2591)
Aircraft: AIRBUS A320
(A320)
More flights by this aircraft type
Origin: KJAC Jackson Hole
United States
Destination: KGEG Spokane Intl
United States
More flights between these airports :: More routes between these airports
Route: +ALPIN2 IDA GEG
File this flight plan on PilotEdge
Remarks:
Altitude:
(Current/Filed)
40,000ft
Speed:
(Current/Filed)
450kts
Departed: 08-Oct-19 03:57 PM
Arrived: 08-Oct-19 05:12 PM
Distance/Time
Traveled:
373nm/1:15
Distance/Time
To Go:
Arrived

Flight Plot

Page will automatically refresh every two minutes.

Flight plan parsing failed; only flown route is shown


Map Options




Map Legend


Flown Route
Filed Route
Departure Airport
Arrival Airport
Navaid (VOR, NDB)
Fix

Horizontal Profiles

Position Reports

Time Latitude Longitude Heading Altitude Ground
Speed
08-Oct-19 15:27 43.599726 -110.739239 108 6429ft 0kts
08-Oct-19 15:28 43.599726 -110.739239 108 6429ft 0kts
08-Oct-19 15:29 43.599726 -110.739239 108 6429ft 0kts
08-Oct-19 15:30 43.599726 -110.739239 108 6429ft 0kts
08-Oct-19 15:31 43.599726 -110.739239 108 6429ft 0kts
08-Oct-19 15:32 43.599726 -110.739239 108 6429ft 0kts
08-Oct-19 15:33 43.599726 -110.739239 108 6429ft 0kts
08-Oct-19 15:34 43.599726 -110.739239 108 6429ft 0kts
08-Oct-19 15:35 43.599726 -110.739239 108 6429ft 0kts
08-Oct-19 15:36 43.599726 -110.739239 108 6429ft 0kts
08-Oct-19 15:37 43.599726 -110.739239 108 6429ft 0kts
08-Oct-19 15:38 43.599726 -110.739239 108 6429ft 0kts
08-Oct-19 15:39 43.599726 -110.739239 108 6429ft 0kts
08-Oct-19 15:40 43.599726 -110.739239 108 6429ft 0kts
08-Oct-19 15:41 43.599726 -110.739239 108 6429ft 0kts
08-Oct-19 15:42 43.599726 -110.739239 108 6429ft 0kts
08-Oct-19 15:43 43.599726 -110.739239 108 6429ft 0kts
08-Oct-19 15:44 43.599726 -110.739239 108 6429ft 0kts
08-Oct-19 15:45 43.599797 -110.739175 338 6429ft 3kts
08-Oct-19 15:46 43.601795 -110.738852 21 6429ft 12kts
08-Oct-19 15:47 43.605064 -110.737268 18 6429ft 13kts
08-Oct-19 15:48 43.607571 -110.736018 19 6429ft 8kts
08-Oct-19 15:49 43.609462 -110.735109 19 6429ft 6kts
08-Oct-19 15:50 43.611250 -110.734247 19 6429ft 8kts
08-Oct-19 15:51 43.613586 -110.733068 19 6429ft 8kts
08-Oct-19 15:52 43.614832 -110.732525 332 6429ft 0kts
08-Oct-19 15:53 43.614832 -110.732525 332 6429ft 0kts
08-Oct-19 15:54 43.614832 -110.732525 332 6429ft 0kts
08-Oct-19 15:55 43.614970 -110.732690 310 6429ft 6kts
08-Oct-19 15:56 43.612745 -110.735136 200 6429ft 85kts
08-Oct-19 15:57 43.576324 -110.768814 217 10126ft 195kts
08-Oct-19 15:58 43.524194 -110.804255 208 13218ft 260kts
08-Oct-19 15:59 43.458993 -110.845078 206 15015ft 338kts
08-Oct-19 16:00 43.367844 -110.899736 206 17856ft 367kts
08-Oct-19 16:01 43.279066 -110.967744 230 20757ft 369kts
08-Oct-19 16:02 43.252953 -111.099971 277 23389ft 383kts
08-Oct-19 16:03 43.290630 -111.240603 285 25615ft 398kts
08-Oct-19 16:04 43.330836 -111.383950 285 27573ft 406kts
08-Oct-19 16:05 43.371787 -111.530417 285 29278ft 414kts
08-Oct-19 16:06 43.412686 -111.677463 285 31048ft 412kts
08-Oct-19 16:07 43.452879 -111.822869 285 33063ft 403kts
08-Oct-19 16:08 43.492159 -111.965799 285 34822ft 396kts
08-Oct-19 16:09 43.547074 -112.098155 307 36265ft 414kts
08-Oct-19 16:10 43.632811 -112.205301 309 37434ft 417kts
08-Oct-19 16:11 43.718820 -112.312827 309 37887ft 416kts
08-Oct-19 16:12 43.804833 -112.420728 309 37891ft 416kts
08-Oct-19 16:13 43.890586 -112.528722 309 37892ft 417kts
08-Oct-19 16:14 43.976417 -112.637250 309 37896ft 417kts
08-Oct-19 16:15 44.059661 -112.742931 308 37902ft 417kts
08-Oct-19 16:16 44.140454 -112.845906 308 37899ft 416kts
08-Oct-19 16:17 44.225518 -112.954750 308 37835ft 413kts
08-Oct-19 16:18 44.309754 -113.062984 307 37743ft 409kts
08-Oct-19 16:19 44.393185 -113.170627 307 37720ft 408kts
08-Oct-19 16:20 44.476453 -113.278491 308 37698ft 408kts
08-Oct-19 16:21 44.559836 -113.386952 307 37724ft 408kts
08-Oct-19 16:22 44.642904 -113.495485 308 37712ft 408kts
08-Oct-19 16:23 44.725987 -113.604361 308 37728ft 408kts
08-Oct-19 16:24 44.805593 -113.709192 306 37709ft 411kts
08-Oct-19 16:25 44.889446 -113.820051 306 37729ft 413kts
08-Oct-19 16:26 44.973201 -113.931242 306 37739ft 413kts
08-Oct-19 16:27 45.055878 -114.041449 304 37718ft 403kts
08-Oct-19 16:28 45.133018 -114.144710 303 37717ft 398kts
08-Oct-19 16:29 45.213180 -114.252459 303 37721ft 397kts
08-Oct-19 16:30 45.293511 -114.360858 303 37717ft 397kts
08-Oct-19 16:31 45.373415 -114.469136 303 37714ft 397kts
08-Oct-19 16:32 45.453144 -114.577605 303 37722ft 396kts
08-Oct-19 16:33 45.529275 -114.681613 302 37721ft 398kts
08-Oct-19 16:34 45.608914 -114.790841 302 37734ft 398kts
08-Oct-19 16:35 45.688814 -114.900882 302 37816ft 397kts
08-Oct-19 16:36 45.768405 -115.010970 302 37917ft 398kts
08-Oct-19 16:37 45.848287 -115.121931 302 37868ft 402kts
08-Oct-19 16:38 45.929338 -115.234985 302 37876ft 409kts
08-Oct-19 16:40 46.011069 -115.349457 302 37933ft 412kts
08-Oct-19 16:41 46.093104 -115.464878 302 37937ft 413kts
08-Oct-19 16:42 46.170191 -115.573802 302 37910ft 410kts
08-Oct-19 16:43 46.247772 -115.683875 301 37908ft 409kts
08-Oct-19 16:44 46.328137 -115.798354 301 35582ft 408kts
08-Oct-19 16:45 46.409344 -115.914589 302 33762ft 411kts
08-Oct-19 16:46 46.490731 -116.031609 302 32296ft 414kts
08-Oct-19 16:47 46.572722 -116.150008 303 30828ft 416kts
08-Oct-19 16:48 46.655149 -116.269550 305 28118ft 424kts
08-Oct-19 16:49 46.739986 -116.393168 307 24227ft 438kts
08-Oct-19 16:50 46.823241 -116.515061 308 21498ft 416kts
08-Oct-19 16:51 46.903233 -116.632746 309 17985ft 401kts
08-Oct-19 16:52 46.976914 -116.741637 310 15158ft 405kts
08-Oct-19 16:53 47.056468 -116.859655 311 15039ft 409kts
08-Oct-19 16:54 47.130819 -116.970452 311 15026ft 398kts
08-Oct-19 16:55 47.199609 -117.073517 312 15029ft 311kts
08-Oct-19 16:56 47.258969 -117.162649 312 15025ft 305kts
08-Oct-19 16:56 47.308430 -117.237076 312 15024ft 305kts
08-Oct-19 16:58 47.377341 -117.341213 312 14476ft 299kts
08-Oct-19 16:59 47.437648 -117.424494 337 12606ft 299kts
08-Oct-19 17:00 47.515178 -117.394696 26 10880ft 296kts
08-Oct-19 17:00 47.575532 -117.349508 26 9103ft 288kts
08-Oct-19 17:01 47.643503 -117.298673 25 7693ft 249kts
08-Oct-19 17:03 47.706426 -117.231732 42 5668ft 235kts
08-Oct-19 17:03 47.745132 -117.206928 339 5044ft 218kts
08-Oct-19 17:04 47.761258 -117.275240 269 5028ft 172kts
08-Oct-19 17:05 47.755180 -117.330919 232 5011ft 125kts
08-Oct-19 17:07 47.726967 -117.374288 227 4967ft 124kts
08-Oct-19 17:07 47.707031 -117.404315 227 4453ft 120kts
08-Oct-19 17:08 47.684133 -117.438698 226 3824ft 116kts
08-Oct-19 17:09 47.661797 -117.472263 227 3213ft 113kts
08-Oct-19 17:10 47.639789 -117.505263 226 2617ft 113kts
08-Oct-19 17:11 47.628271 -117.526692 250 2350ft 21kts

Navigation Log

Ident Type
Flight plan parsing failed, navigation log unavailable